Time;durP1;ratioP1;P1;durP2;ratioP2;P2;SDS_P1;SDS_P2;PMS_P1;PMS_P2;Temp;Humidity;BMP_temperature;BMP_pressure;BME280_temperature;BME280_humidity;BME280_pressure;Samples;Min_cycle;Max_cycle;Signal;HPM_P1;HPM_P2
2022/12/17 13:06:35;;;;;;;;;;;11.90;1.00;;;;;;6121190;23;19912;-76
2022/12/17 13:09:24;;;;;;;;;;;12.50;1.00;;;;;;6126910;23;20232;-76
2022/12/17 13:12:10;;;;;;;;;;;12.40;1.00;;;;;;6111579;23;20394;-75
2022/12/17 13:14:56;;;;;;;;;;;12.30;1.00;;;;;;6106170;23;19920;-77
2022/12/17 13:17:21;;;;;;;;;;;11.70;1.00;;;;;;6106154;23;19916;-76
2022/12/17 13:19:56;;;;;;;;;;;12.00;1.00;;;;;;6127145;23;19905;-76
2022/12/17 13:22:21;;;;;;;;;;;12.30;1.00;;;;;;6127045;23;19912;-76
2022/12/17 13:24:48;;;;;;;;;;;11.90;1.00;;;;;;6126879;23;20316;-76
2022/12/17 13:27:32;;;;;;;;;;;11.40;1.00;;;;;;6127002;23;19905;-77
2022/12/17 13:30:10;;;;;;;;;;;10.90;1.00;;;;;;6126755;23;19992;-76
2022/12/17 13:32:39;;;;;;;;;;;11.30;1.00;;;;;;6126992;23;19905;-76
2022/12/17 13:35:15;;;;;;;;;;;11.90;1.00;;;;;;6126828;23;19905;-75
2022/12/17 13:37:41;;;;;;;;;;;12.10;1.00;;;;;;6127087;23;19916;-76
2022/12/17 13:40:15;;;;;;;;;;;11.90;1.00;;;;;;6127035;23;19905;-76
2022/12/17 13:42:44;;;;;;;;;;;11.60;1.00;;;;;;6100887;23;20293;-75
2022/12/17 13:45:14;;;;;;;;;;;11.80;1.00;;;;;;6126762;23;19912;-76
2022/12/17 13:47:40;;;;;;;;;;;11.80;1.00;;;;;;6126986;23;19975;-76
2022/12/17 13:50:19;;;;;;;;;;;12.50;1.00;;;;;;6126788;23;19939;-75
2022/12/17 13:52:44;;;;;;;;;;;12.40;1.00;;;;;;6126803;23;19905;-76
2022/12/17 13:55:16;;;;;;;;;;;11.90;1.00;;;;;;6126585;23;19917;-76
2022/12/17 13:57:46;;;;;;;;;;;12.90;1.00;;;;;;6127257;23;20383;-76
2022/12/17 14:00:22;;;;;;;;;;;13.50;1.00;;;;;;6126626;23;19937;-76
2022/12/17 14:02:48;;;;;;;;;;;13.40;1.00;;;;;;6126884;23;19912;-77
2022/12/17 14:05:24;;;;;;;;;;;13.20;1.00;;;;;;6126728;23;19929;-76
2022/12/17 14:07:50;;;;;;;;;;;10.80;1.00;;;;;;6126830;23;20407;-75
2022/12/17 14:10:16;;;;;;;;;;;10.00;1.00;;;;;;6126670;23;19929;-75
2022/12/17 14:12:42;;;;;;;;;;;9.30;1.00;;;;;;6126828;23;19909;-75
2022/12/17 14:15:16;;;;;;;;;;;8.50;1.00;;;;;;6126786;23;19955;-77
2022/12/17 14:17:47;;;;;;;;;;;7.40;1.00;;;;;;6126665;23;19912;-75
2022/12/17 14:20:15;;;;;;;;;;;7.70;1.00;;;;;;6126941;23;19909;-75
2022/12/17 14:22:49;;;;;;;;;;;8.90;1.00;;;;;;6127458;23;19909;-76
2022/12/17 14:25:16;;;;;;;;;;;8.70;1.00;;;;;;6128520;23;19975;-76
2022/12/17 14:27:50;;;;;;;;;;;7.70;1.00;;;;;;6128369;23;19905;-76
2022/12/17 14:30:23;;;;;;;;;;;7.10;1.00;;;;;;6129104;23;20279;-75
2022/12/17 14:32:49;;;;;;;;;;;6.80;1.00;;;;;;6128366;23;19944;-76
2022/12/17 14:35:41;;;;;;;;;;;6.50;1.00;;;;;;6128314;23;19905;-76
2022/12/17 14:38:15;;;;;;;;;;;7.30;1.00;;;;;;6122570;23;19956;-76
2022/12/17 14:40:40;;;;;;;;;;;7.50;1.00;;;;;;6128407;23;19905;-75
2022/12/17 14:43:06;;;;;;;;;;;7.20;1.00;;;;;;6102303;23;20028;-76
2022/12/17 14:46:18;;;;;;;;;;;6.70;1.00;;;;;;6128848;23;19912;-76
2022/12/17 14:48:17;;;;;;;;;;;7.00;1.00;;;;;;6127786;23;19909;-76
2022/12/17 14:50:53;;;;;;;;;;;6.20;1.00;;;;;;6102326;23;19912;-75
2022/12/17 14:53:25;;;;;;;;;;;5.60;1.00;;;;;;6128153;23;19927;-76
2022/12/17 14:55:51;;;;;;;;;;;5.40;1.00;;;;;;6128198;23;20299;-75
2022/12/17 14:58:18;;;;;;;;;;;5.20;1.00;;;;;;6102229;23;19909;-76
2022/12/17 15:00:45;;;;;;;;;;;5.10;1.00;;;;;;6128192;23;19905;-75
2022/12/17 15:03:17;;;;;;;;;;;4.70;1.00;;;;;;6128046;23;19916;-75
2022/12/17 15:05:45;;;;;;;;;;;4.50;5.00;;;;;;6101819;23;19952;-75
2022/12/17 15:08:10;;;;;;;;;;;4.30;7.50;;;;;;6128289;23;19960;-75
2022/12/17 15:10:36;;;;;;;;;;;4.20;18.70;;;;;;6128045;23;19908;-76
2022/12/17 15:13:01;;;;;;;;;;;4.10;19.80;;;;;;6128006;23;19909;-76
2022/12/17 15:15:27;;;;;;;;;;;3.90;22.40;;;;;;6127960;23;19905;-76
2022/12/17 15:17:53;;;;;;;;;;;3.80;18.30;;;;;;6101910;23;19912;-75
2022/12/17 15:20:19;;;;;;;;;;;3.50;23.80;;;;;;6128097;23;19905;-75
2022/12/17 15:22:45;;;;;;;;;;;3.30;38.00;;;;;;6127958;23;19905;-75
2022/12/17 15:25:15;;;;;;;;;;;3.20;47.30;;;;;;6101778;23;20418;-77
2022/12/17 15:27:40;;;;;;;;;;;3.10;43.30;;;;;;6127805;23;20243;-75
2022/12/17 15:30:06;;;;;;;;;;;3.00;52.80;;;;;;6128050;23;19909;-75
2022/12/17 15:32:32;;;;;;;;;;;3.20;54.60;;;;;;6127754;23;19911;-75
2022/12/17 15:34:58;;;;;;;;;;;3.40;53.70;;;;;;6127952;23;19911;-77
2022/12/17 15:37:23;;;;;;;;;;;3.30;43.70;;;;;;6127817;23;20239;-75
2022/12/17 15:39:49;;;;;;;;;;;3.20;57.20;;;;;;6127708;23;19905;-76
2022/12/17 15:44:59;;;;;;;;;;;3.00;61.00;;;;;;6127806;23;19927;-75
2022/12/17 15:47:25;;;;;;;;;;;3.00;61.30;;;;;;6101599;23;20240;-75
2022/12/17 15:49:50;;;;;;;;;;;3.00;65.00;;;;;;6128205;23;19912;-76
2022/12/17 15:52:16;;;;;;;;;;;2.90;57.00;;;;;;6127901;23;19917;-75
2022/12/17 15:54:42;;;;;;;;;;;2.80;60.00;;;;;;6127630;23;19913;-75
2022/12/17 15:57:07;;;;;;;;;;;2.70;71.50;;;;;;6101182;23;19936;-75
2022/12/17 15:59:33;;;;;;;;;;;2.50;73.10;;;;;;6127642;23;19988;-75
2022/12/17 16:01:59;;;;;;;;;;;2.60;73.50;;;;;;6127608;23;20284;-75
2022/12/17 16:04:24;;;;;;;;;;;2.60;80.00;;;;;;6101438;23;20009;-75
2022/12/17 16:06:50;;;;;;;;;;;2.60;79.90;;;;;;6127937;23;19905;-75
2022/12/17 16:09:16;;;;;;;;;;;2.40;92.40;;;;;;6127315;23;19935;-76
2022/12/17 16:11:41;;;;;;;;;;;2.40;93.70;;;;;;6127640;23;20001;-76
2022/12/17 16:14:07;;;;;;;;;;;2.30;98.10;;;;;;6127410;23;19929;-75
2022/12/17 16:16:33;;;;;;;;;;;2.40;96.20;;;;;;6127324;23;20247;-77
2022/12/17 16:19:00;;;;;;;;;;;2.40;96.70;;;;;;6128049;23;20326;-76
2022/12/17 16:21:26;;;;;;;;;;;2.20;99.90;;;;;;6127329;23;20332;-76
2022/12/17 16:23:52;;;;;;;;;;;2.20;99.90;;;;;;6101304;23;19905;-75
2022/12/17 16:26:17;;;;;;;;;;;2.20;99.90;;;;;;6127255;23;19980;-75
2022/12/17 16:28:43;;;;;;;;;;;2.10;99.90;;;;;;6127175;23;19909;-75
2022/12/17 16:31:13;;;;;;;;;;;2.20;99.90;;;;;;6127325;23;19905;-76
2022/12/17 16:33:39;;;;;;;;;;;2.20;99.90;;;;;;6127223;23;19912;-76
2022/12/17 16:36:06;;;;;;;;;;;2.30;99.90;;;;;;6127305;23;19975;-76
2022/12/17 16:38:32;;;;;;;;;;;2.20;99.90;;;;;;6127693;23;20291;-75
2022/12/17 16:40:58;;;;;;;;;;;2.20;99.90;;;;;;6127597;23;19912;-75
2022/12/17 16:43:24;;;;;;;;;;;2.20;99.90;;;;;;6127148;23;20403;-76
2022/12/17 16:45:50;;;;;;;;;;;2.10;99.90;;;;;;6126903;23;19905;-75
2022/12/17 16:48:18;;;;;;;;;;;2.10;99.90;;;;;;6126130;23;20217;-75
2022/12/17 16:50:44;;;;;;;;;;;2.00;99.90;;;;;;6127326;23;19936;-75
2022/12/17 16:53:11;;;;;;;;;;;1.90;99.90;;;;;;6100891;23;20285;-76
2022/12/17 16:55:54;;;;;;;;;;;2.00;99.90;;;;;;6126844;23;19935;-75
2022/12/17 16:58:20;;;;;;;;;;;2.00;99.90;;;;;;6127394;23;19909;-75
2022/12/17 17:00:52;;;;;;;;;;;1.90;99.90;;;;;;6127716;23;19912;-76
2022/12/17 17:03:17;;;;;;;;;;;1.90;99.90;;;;;;6127029;23;19905;-75
2022/12/17 17:05:43;;;;;;;;;;;1.80;99.90;;;;;;6126992;23;19984;-75
2022/12/17 17:08:08;;;;;;;;;;;1.80;99.90;;;;;;6100966;23;20276;-76
2022/12/17 17:10:35;;;;;;;;;;;1.80;99.90;;;;;;6101059;23;19905;-75
2022/12/17 17:13:01;;;;;;;;;;;1.80;99.90;;;;;;6126925;23;20331;-75
2022/12/17 17:15:27;;;;;;;;;;;1.80;99.90;;;;;;6100920;23;19912;-75
2022/12/17 17:17:52;;;;;;;;;;;1.80;99.90;;;;;;6126957;23;19912;-76
2022/12/17 17:20:18;;;;;;;;;;;1.80;99.90;;;;;;6127117;23;19911;-76
2022/12/17 17:22:44;;;;;;;;;;;2.00;99.90;;;;;;6126914;23;19905;-76
2022/12/17 17:25:11;;;;;;;;;;;2.10;99.90;;;;;;6126851;23;19959;-75
2022/12/17 17:27:41;;;;;;;;;;;2.00;99.90;;;;;;6100951;23;20244;-76
2022/12/17 17:30:06;;;;;;;;;;;2.00;99.90;;;;;;6126950;23;19913;-75
2022/12/17 17:32:32;;;;;;;;;;;1.80;99.90;;;;;;6126859;23;20420;-75
2022/12/17 17:34:58;;;;;;;;;;;1.70;99.90;;;;;;6100843;23;20240;-75
2022/12/17 17:37:23;;;;;;;;;;;1.70;99.90;;;;;;6126808;23;19909;-76
2022/12/17 17:39:49;;;;;;;;;;;1.60;99.90;;;;;;6126784;23;20324;-75
2022/12/17 17:42:14;;;;;;;;;;;1.70;99.90;;;;;;6126790;23;19960;-75
2022/12/17 17:44:40;;;;;;;;;;;1.60;99.90;;;;;;6126932;23;19905;-77
2022/12/17 17:47:05;;;;;;;;;;;1.50;99.90;;;;;;6100839;23;19975;-75
2022/12/17 17:49:31;;;;;;;;;;;1.50;99.90;;;;;;6126714;23;19939;-75
2022/12/17 17:51:57;;;;;;;;;;;1.40;99.90;;;;;;6126827;23;19912;-76
2022/12/17 17:54:22;;;;;;;;;;;1.40;99.90;;;;;;6126866;23;19931;-75
2022/12/17 17:56:48;;;;;;;;;;;1.30;99.90;;;;;;6126450;23;19920;-75
2022/12/17 17:59:21;;;;;;;;;;;1.30;99.90;;;;;;6102702;23;19909;-76
2022/12/17 18:01:50;;;;;;;;;;;1.30;99.90;;;;;;6128912;23;19912;-75
2022/12/17 18:04:17;;;;;;;;;;;1.30;99.90;;;;;;6128983;23;20374;-75
2022/12/17 18:06:44;;;;;;;;;;;1.30;99.90;;;;;;6102648;23;19905;-76
2022/12/17 18:09:09;;;;;;;;;;;1.30;99.90;;;;;;6128501;23;20324;-75
2022/12/17 18:11:36;;;;;;;;;;;1.40;99.90;;;;;;6128625;23;19960;-74
2022/12/17 18:14:02;;;;;;;;;;;1.40;99.90;;;;;;6128596;23;20300;-74
2022/12/17 18:16:29;;;;;;;;;;;1.50;99.90;;;;;;6128564;23;19904;-75
2022/12/17 18:18:58;;;;;;;;;;;1.50;99.90;;;;;;6128648;23;19927;-76
2022/12/17 18:21:25;;;;;;;;;;;1.50;99.90;;;;;;6128779;23;19905;-75
2022/12/17 18:24:17;;;;;;;;;;;1.40;99.90;;;;;;6128571;23;19905;-75
2022/12/17 18:26:43;;;;;;;;;;;1.40;99.90;;;;;;6122807;23;19912;-75
2022/12/17 18:29:10;;;;;;;;;;;1.40;99.90;;;;;;6128624;23;19909;-76
2022/12/17 18:31:35;;;;;;;;;;;1.40;99.90;;;;;;6128452;23;19905;-77
2022/12/17 18:34:02;;;;;;;;;;;1.40;99.90;;;;;;6128315;23;19992;-75
2022/12/17 18:36:30;;;;;;;;;;;1.40;99.90;;;;;;6102572;23;20323;-76
2022/12/17 18:38:56;;;;;;;;;;;1.50;99.90;;;;;;6128321;23;19964;-75
2022/12/17 18:44:07;;;;;;;;;;;1.50;99.90;;;;;;6127995;23;19912;-76
2022/12/17 18:46:33;;;;;;;;;;;1.50;99.90;;;;;;6127813;23;19905;-75
2022/12/17 18:49:00;;;;;;;;;;;1.40;99.90;;;;;;6128457;23;19945;-75
2022/12/17 18:51:26;;;;;;;;;;;1.30;99.90;;;;;;6128167;23;19909;-76
2022/12/17 18:53:55;;;;;;;;;;;1.40;99.90;;;;;;6128112;23;19969;-75
2022/12/17 18:56:21;;;;;;;;;;;1.40;99.90;;;;;;6127925;23;19919;-74
2022/12/17 18:58:46;;;;;;;;;;;1.30;99.90;;;;;;6128152;23;19905;-76
2022/12/17 19:01:25;;;;;;;;;;;1.20;99.90;;;;;;6102227;23;20244;-75
2022/12/17 19:03:51;;;;;;;;;;;1.10;99.90;;;;;;6128144;23;19912;-75
2022/12/17 19:06:17;;;;;;;;;;;1.00;99.90;;;;;;6128038;23;19956;-75
2022/12/17 19:08:43;;;;;;;;;;;0.90;99.90;;;;;;6127923;23;19920;-76
2022/12/17 19:11:09;;;;;;;;;;;0.90;99.90;;;;;;6128336;23;19905;-76
2022/12/17 19:13:35;;;;;;;;;;;0.80;99.90;;;;;;6128021;23;19905;-76
2022/12/17 19:16:08;;;;;;;;;;;0.70;99.90;;;;;;6127978;23;19947;-75
2022/12/17 19:18:34;;;;;;;;;;;0.50;99.90;;;;;;6128489;23;19912;-75
2022/12/17 19:20:59;;;;;;;;;;;0.40;99.90;;;;;;6127972;23;19905;-75
2022/12/17 19:23:25;;;;;;;;;;;0.40;99.90;;;;;;6128009;23;19905;-75
2022/12/17 19:25:51;;;;;;;;;;;0.40;99.90;;;;;;6127873;23;19909;-75
2022/12/17 19:28:17;;;;;;;;;;;0.30;99.90;;;;;;6127775;23;19909;-75
2022/12/17 19:30:43;;;;;;;;;;;0.30;99.90;;;;;;6127722;23;20339;-75
2022/12/17 19:33:08;;;;;;;;;;;0.30;99.90;;;;;;6127770;23;19905;-75
2022/12/17 19:35:35;;;;;;;;;;;0.30;99.90;;;;;;6127871;23;19933;-77
2022/12/17 19:38:00;;;;;;;;;;;0.20;99.90;;;;;;6127698;23;19905;-76
2022/12/17 19:40:26;;;;;;;;;;;0.20;99.90;;;;;;6127920;23;19944;-76
2022/12/17 19:42:55;;;;;;;;;;;0.10;99.90;;;;;;6101726;23;19955;-75
2022/12/17 19:45:20;;;;;;;;;;;0.00;99.90;;;;;;6127813;23;20002;-75
2022/12/17 19:47:47;;;;;;;;;;;0.00;99.90;;;;;;6127793;23;19954;-75
2022/12/17 19:50:12;;;;;;;;;;;0.00;99.90;;;;;;6127574;23;19952;-76
2022/12/17 19:52:38;;;;;;;;;;;0.00;99.90;;;;;;6127581;23;19904;-75
2022/12/17 19:55:04;;;;;;;;;;;0.00;99.90;;;;;;6127427;23;19909;-75
2022/12/17 19:57:30;;;;;;;;;;;-0.10;99.90;;;;;;6127690;23;19976;-74
2022/12/17 19:59:56;;;;;;;;;;;-0.10;99.90;;;;;;6128111;23;19912;-76
2022/12/17 20:02:21;;;;;;;;;;;-0.20;99.90;;;;;;6127452;23;19909;-76
2022/12/17 20:04:47;;;;;;;;;;;-0.20;99.90;;;;;;6127630;23;19992;-76
2022/12/17 20:07:12;;;;;;;;;;;-0.20;99.90;;;;;;6127474;23;19905;-76
2022/12/17 20:09:39;;;;;;;;;;;-0.20;99.90;;;;;;6127943;23;20320;-76
2022/12/17 20:12:05;;;;;;;;;;;-0.20;99.90;;;;;;6127446;23;19905;-77
2022/12/17 20:14:33;;;;;;;;;;;-0.30;99.90;;;;;;6127403;23;19952;-76
2022/12/17 20:16:59;;;;;;;;;;;-0.30;99.90;;;;;;6127378;23;19983;-76
2022/12/17 20:19:26;;;;;;;;;;;-0.40;99.90;;;;;;6101079;23;19911;-76
2022/12/17 20:21:52;;;;;;;;;;;-0.40;99.90;;;;;;6127276;23;19936;-77
2022/12/17 20:24:18;;;;;;;;;;;-0.40;99.90;;;;;;6127515;23;19905;-77
2022/12/17 20:26:44;;;;;;;;;;;-0.40;99.90;;;;;;6127497;23;20329;-75
2022/12/17 20:29:09;;;;;;;;;;;-0.50;99.90;;;;;;6127245;23;19956;-76
2022/12/17 20:31:35;;;;;;;;;;;-0.50;99.90;;;;;;6127734;23;19940;-76
2022/12/17 20:34:02;;;;;;;;;;;-0.50;99.90;;;;;;6127406;23;20263;-77
2022/12/17 20:36:28;;;;;;;;;;;-0.50;99.90;;;;;;6127207;23;19912;-76
2022/12/17 20:38:54;;;;;;;;;;;-0.50;99.90;;;;;;6127226;23;19936;-76
2022/12/17 20:41:21;;;;;;;;;;;-0.50;99.90;;;;;;6127198;23;19905;-77
2022/12/17 20:43:46;;;;;;;;;;;-0.60;99.90;;;;;;6127146;23;20343;-76
2022/12/17 20:46:12;;;;;;;;;;;-0.70;99.90;;;;;;6127242;23;19905;-75
2022/12/17 20:48:39;;;;;;;;;;;-0.60;99.90;;;;;;6126934;23;19908;-76
2022/12/17 20:51:05;;;;;;;;;;;-0.70;99.90;;;;;;6127337;23;19911;-77
2022/12/17 20:53:34;;;;;;;;;;;-0.60;99.90;;;;;;6126998;23;20327;-77
2022/12/17 20:56:01;;;;;;;;;;;-0.60;99.90;;;;;;6126798;23;19913;-76
2022/12/17 20:58:27;;;;;;;;;;;-0.60;99.90;;;;;;6127084;23;19961;-75
2022/12/17 21:00:59;;;;;;;;;;;-0.60;99.90;;;;;;6126958;23;19909;-76
2022/12/17 21:03:25;;;;;;;;;;;-0.70;99.90;;;;;;6127492;23;19905;-76
2022/12/17 21:05:51;;;;;;;;;;;-0.70;99.90;;;;;;6126998;23;20336;-76
2022/12/17 21:08:16;;;;;;;;;;;-0.70;99.90;;;;;;6126884;23;19951;-76
2022/12/17 21:10:42;;;;;;;;;;;-0.70;99.90;;;;;;6126991;23;19911;-76
2022/12/17 21:15:52;;;;;;;;;;;-0.80;99.90;;;;;;6126585;23;20311;-76
2022/12/17 21:18:17;;;;;;;;;;;-0.80;99.90;;;;;;6126941;23;19905;-76
2022/12/17 21:20:52;;;;;;;;;;;-0.80;99.90;;;;;;6127110;23;19905;-76
2022/12/17 21:23:17;;;;;;;;;;;-0.80;99.90;;;;;;6126980;23;20289;-76
2022/12/17 21:25:43;;;;;;;;;;;-0.80;99.90;;;;;;6126966;23;19936;-78
2022/12/17 21:28:09;;;;;;;;;;;-0.70;99.90;;;;;;6127250;23;19915;-76
2022/12/17 21:30:35;;;;;;;;;;;-0.80;99.90;;;;;;6127329;23;20328;-76
2022/12/17 21:33:01;;;;;;;;;;;-0.70;99.90;;;;;;6104171;23;19905;-76
2022/12/17 21:35:26;;;;;;;;;;;-0.80;99.90;;;;;;6130185;23;19905;-77
2022/12/17 21:37:52;;;;;;;;;;;-0.90;99.90;;;;;;6130092;23;20342;-76
2022/12/17 21:40:17;;;;;;;;;;;-0.90;99.90;;;;;;6130059;23;19905;-77
2022/12/17 21:43:01;;;;;;;;;;;-1.00;99.90;;;;;;6130068;23;19911;-75
2022/12/17 21:45:27;;;;;;;;;;;-1.00;99.90;;;;;;6130158;23;19911;-76
2022/12/17 21:47:52;;;;;;;;;;;-1.00;99.90;;;;;;6130056;23;20347;-75
2022/12/17 21:50:18;;;;;;;;;;;-1.00;99.90;;;;;;6129984;23;19984;-76
2022/12/17 21:52:43;;;;;;;;;;;-1.00;99.90;;;;;;6130003;23;19909;-76
2022/12/17 21:55:09;;;;;;;;;;;-1.00;99.90;;;;;;6129786;23;19913;-76
2022/12/17 21:57:35;;;;;;;;;;;-1.00;99.90;;;;;;6130036;23;19936;-76
2022/12/17 22:00:00;;;;;;;;;;;-1.00;99.90;;;;;;6130182;23;19905;-76
2022/12/17 22:02:26;;;;;;;;;;;-1.00;99.90;;;;;;6130012;23;19905;-76
2022/12/17 22:04:52;;;;;;;;;;;-1.10;99.90;;;;;;6129998;23;19905;-76
2022/12/17 22:07:17;;;;;;;;;;;-1.10;99.90;;;;;;6129960;23;20351;-76
2022/12/17 22:09:43;;;;;;;;;;;-1.10;99.90;;;;;;6130254;23;19920;-76
2022/12/17 22:14:52;;;;;;;;;;;-1.10;99.90;;;;;;6129625;23;20263;-76
2022/12/17 22:17:18;;;;;;;;;;;-1.20;99.90;;;;;;6129952;23;19905;-76
2022/12/17 22:19:44;;;;;;;;;;;-1.20;99.90;;;;;;6104016;23;19905;-76
2022/12/17 22:22:09;;;;;;;;;;;-1.20;99.90;;;;;;6129923;23;19905;-76
2022/12/17 22:24:35;;;;;;;;;;;-1.20;99.90;;;;;;6129972;23;19908;-77
2022/12/17 22:27:00;;;;;;;;;;;-1.20;99.90;;;;;;6129952;23;19905;-76
2022/12/17 22:34:54;;;;;;;;;;;-1.30;99.90;;;;;;6129846;23;19916;-76
2022/12/17 22:37:20;;;;;;;;;;;-1.30;99.90;;;;;;6103944;23;19905;-77
2022/12/17 22:39:45;;;;;;;;;;;-1.30;99.90;;;;;;6129358;23;19908;-76
2022/12/17 22:44:55;;;;;;;;;;;-1.30;99.90;;;;;;6128264;23;19913;-77
2022/12/17 22:47:21;;;;;;;;;;;-1.40;99.90;;;;;;6128479;23;19912;-77
2022/12/17 22:49:46;;;;;;;;;;;-1.40;99.90;;;;;;6128464;23;19909;-76
2022/12/17 22:52:12;;;;;;;;;;;-1.30;99.90;;;;;;6128802;23;19905;-76
2022/12/17 22:54:37;;;;;;;;;;;-1.40;99.90;;;;;;6127941;23;19905;-76
2022/12/17 22:57:03;;;;;;;;;;;-1.40;99.90;;;;;;6128668;23;20335;-76
2022/12/17 22:59:29;;;;;;;;;;;-1.40;99.90;;;;;;6128480;23;19905;-76
2022/12/17 23:01:54;;;;;;;;;;;-1.30;99.90;;;;;;6128111;23;20361;-76
2022/12/17 23:04:20;;;;;;;;;;;-1.30;99.90;;;;;;6128109;23;20355;-76
2022/12/17 23:06:45;;;;;;;;;;;-1.40;99.90;;;;;;6128430;23;19912;-76
2022/12/17 23:09:11;;;;;;;;;;;-1.40;99.90;;;;;;6127920;23;20332;-77
2022/12/17 23:11:37;;;;;;;;;;;-1.40;99.90;;;;;;6128022;23;19905;-76
2022/12/17 23:14:04;;;;;;;;;;;-1.40;99.90;;;;;;6102029;23;19960;-76
2022/12/17 23:16:30;;;;;;;;;;;-1.40;99.90;;;;;;6128016;23;19905;-76
2022/12/17 23:18:59;;;;;;;;;;;-1.40;99.90;;;;;;6128171;23;19905;-76
2022/12/17 23:21:25;;;;;;;;;;;-1.40;99.90;;;;;;6127955;23;19905;-76
2022/12/17 23:23:51;;;;;;;;;;;-1.40;99.90;;;;;;6127887;23;19912;-76
2022/12/17 23:26:18;;;;;;;;;;;-1.40;99.90;;;;;;6128231;23;19905;-76
2022/12/17 23:28:44;;;;;;;;;;;-1.40;99.90;;;;;;6101227;23;20264;-76
2022/12/17 23:31:11;;;;;;;;;;;-1.40;99.90;;;;;;6127922;23;19956;-76
2022/12/17 23:33:37;;;;;;;;;;;-1.40;99.90;;;;;;6101818;23;19905;-76
2022/12/17 23:36:03;;;;;;;;;;;-1.40;99.90;;;;;;6128315;23;19912;-77
2022/12/17 23:38:29;;;;;;;;;;;-1.40;99.90;;;;;;6127758;23;19906;-77
2022/12/17 23:41:00;;;;;;;;;;;-1.40;99.90;;;;;;6128103;23;19905;-76
2022/12/17 23:43:25;;;;;;;;;;;-1.40;99.90;;;;;;6127955;23;19956;-76
2022/12/17 23:45:51;;;;;;;;;;;-1.40;99.90;;;;;;6127661;23;20247;-76
2022/12/17 23:48:17;;;;;;;;;;;-1.40;99.90;;;;;;6127594;23;19933;-76
2022/12/17 23:50:43;;;;;;;;;;;-1.40;99.90;;;;;;6127683;23;19912;-76
2022/12/17 23:53:09;;;;;;;;;;;-1.50;99.90;;;;;;6127512;23;19938;-77
2022/12/17 23:55:34;;;;;;;;;;;-1.40;99.90;;;;;;6126781;23;19913;-76
2022/12/17 23:58:00;;;;;;;;;;;-1.50;99.90;;;;;;6128192;23;19905;-76
